createdAt,value
2023-04-21T00:02:47.153Z,0.00
2023-04-21T00:07:46.299Z,0.00
2023-04-21T00:12:48.360Z,0.00
2023-04-21T00:17:48.498Z,0.00
2023-04-21T00:22:47.539Z,0.00
2023-04-21T00:27:49.636Z,0.00
2023-04-21T00:32:48.756Z,0.00
2023-04-21T00:37:50.804Z,0.00
2023-04-21T00:42:49.886Z,0.00
2023-04-21T00:47:51.026Z,0.00
2023-04-21T00:52:52.038Z,0.00
2023-04-21T00:57:53.115Z,0.00
2023-04-21T01:02:54.328Z,0.00
2023-04-21T01:07:55.538Z,0.00
2023-04-21T01:12:57.611Z,0.00
2023-04-21T01:17:57.797Z,0.00
2023-04-21T01:22:57.833Z,0.00
2023-04-21T01:27:58.205Z,0.00
2023-04-21T01:32:57.321Z,0.00
2023-04-21T01:37:59.385Z,0.00
2023-04-21T01:42:58.447Z,0.00
2023-04-21T01:47:59.552Z,0.00
2023-04-21T01:53:00.629Z,0.00
2023-04-21T01:58:01.679Z,0.00
2023-04-21T02:03:02.998Z,0.00
2023-04-21T02:08:05.191Z,0.00
2023-04-21T02:13:04.282Z,0.00
2023-04-21T02:18:05.390Z,0.00
2023-04-21T02:23:07.433Z,0.00
2023-04-21T02:28:07.523Z,0.00
2023-04-21T02:33:08.638Z,0.00
2023-04-21T02:38:08.715Z,0.00
2023-04-21T02:43:07.829Z,0.00
2023-04-21T02:48:09.972Z,0.00
2023-04-21T02:53:09.051Z,0.00
2023-04-21T02:58:10.146Z,0.00
2023-04-21T03:03:11.322Z,0.00
2023-04-21T03:08:13.655Z,0.00
2023-04-21T03:13:13.709Z,0.00
2023-04-21T03:18:13.046Z,0.00
2023-04-21T03:23:15.132Z,0.00
2023-04-21T03:28:15.201Z,0.00
2023-04-21T03:33:16.265Z,0.00
2023-04-21T03:38:19.244Z,0.00
2023-04-21T03:43:16.318Z,0.00
2023-04-21T03:48:18.367Z,0.00
2023-04-21T03:53:18.429Z,0.00
2023-04-21T03:59:37.460Z,0.00
2023-04-21T04:03:20.501Z,4.00
2023-04-21T04:08:20.671Z,4.00
2023-04-21T04:13:19.780Z,8.00
2023-04-21T04:18:20.864Z,16.00
2023-04-21T04:23:21.950Z,36.00
2023-04-21T04:28:23.017Z,52.00
2023-04-21T04:33:24.139Z,80.00
2023-04-21T04:38:25.238Z,116.00
2023-04-21T04:43:27.347Z,168.00
2023-04-21T04:48:27.407Z,236.00
2023-04-21T04:53:27.473Z,308.00
2023-04-21T04:58:27.580Z,380.00
2023-04-21T05:03:26.765Z,468.00
2023-04-21T05:08:27.853Z,608.00
2023-04-21T05:13:29.935Z,832.00
2023-04-21T05:18:29.992Z,1000.00
2023-04-21T05:23:30.056Z,1036.00
2023-04-21T05:28:30.146Z,1148.00
2023-04-21T05:33:29.222Z,1256.00
2023-04-21T05:38:31.300Z,1396.00
2023-04-21T05:43:30.405Z,1620.00
2023-04-21T05:48:31.481Z,1768.00
2023-04-21T05:53:33.584Z,2008.00
2023-04-21T05:58:32.661Z,2340.00
2023-04-21T06:03:33.933Z,2812.00
2023-04-21T06:08:35.077Z,3584.00
2023-04-21T06:13:38.348Z,4612.00
2023-04-21T06:18:37.091Z,4932.00
2023-04-21T06:23:36.209Z,5236.00
2023-04-21T06:28:39.299Z,5120.00
2023-04-21T06:33:38.368Z,5516.00
2023-04-21T06:38:39.442Z,5368.00
2023-04-21T06:43:41.542Z,4692.00
2023-04-21T06:48:40.616Z,4776.00
2023-04-21T06:53:41.690Z,4756.00
2023-04-21T06:58:43.754Z,4772.00
2023-04-21T07:03:42.960Z,6104.00
2023-04-21T07:08:45.082Z,6368.00
2023-04-21T07:13:44.146Z,5628.00
2023-04-21T07:18:46.234Z,4912.00
2023-04-21T07:23:46.322Z,4656.00
2023-04-21T07:28:45.421Z,4524.00
2023-04-21T07:33:47.501Z,5492.00
2023-04-21T07:38:46.582Z,6912.00
2023-04-21T07:43:47.677Z,6620.00
2023-04-21T07:48:49.896Z,6016.00
2023-04-21T07:53:48.989Z,5568.00
2023-04-21T07:58:51.149Z,5052.00
2023-04-21T08:03:50.342Z,5024.00
2023-04-21T08:08:52.728Z,4956.00
2023-04-21T08:13:51.784Z,4872.00
2023-04-21T08:18:52.818Z,4904.00
2023-04-21T08:23:54.016Z,4904.00
2023-04-21T08:28:55.226Z,4936.00
2023-04-21T08:34:01.958Z,4964.00
2023-04-21T08:38:56.332Z,4964.00
2023-04-21T08:43:57.439Z,4976.00
2023-04-21T08:48:58.516Z,5004.00
2023-04-21T08:54:00.619Z,5028.00
2023-04-21T08:59:00.017Z,5052.00
2023-04-21T09:04:01.392Z,5080.00
2023-04-21T09:09:02.599Z,5108.00
2023-04-21T09:14:03.671Z,5124.00
2023-04-21T09:19:05.819Z,5140.00
2023-04-21T09:24:05.908Z,5168.00
2023-04-21T09:29:05.961Z,5184.00
2023-04-21T09:34:07.125Z,5184.00
2023-04-21T09:44:06.161Z,5236.00
2023-04-21T09:49:07.282Z,5272.00
2023-04-21T09:54:15.632Z,5308.00
2023-04-21T09:59:08.288Z,5368.00
2023-04-21T10:04:10.447Z,5436.00
2023-04-21T10:09:09.508Z,5584.00
2023-04-21T10:14:10.898Z,6008.00
2023-04-21T10:19:12.033Z,6716.00
2023-04-21T10:24:13.129Z,7948.00
2023-04-21T10:29:14.219Z,8552.00
2023-04-21T10:34:15.315Z,7564.00
2023-04-21T10:39:16.420Z,8472.00
2023-04-21T10:44:18.821Z,8432.00
2023-04-21T10:49:19.055Z,8076.00
2023-04-21T10:54:18.492Z,7732.00
2023-04-21T10:59:17.673Z,7160.00
2023-04-21T11:04:19.328Z,6620.00
2023-04-21T11:09:19.829Z,6240.00
2023-04-21T11:14:19.305Z,5992.00
2023-04-21T11:19:19.516Z,5900.00
2023-04-21T11:24:19.724Z,5852.00
2023-04-21T11:29:19.897Z,5796.00
2023-04-21T11:34:20.210Z,5744.00
2023-04-21T11:39:21.306Z,5712.00
2023-04-21T11:44:19.957Z,5708.00
2023-04-21T11:49:20.022Z,5728.00
2023-04-21T11:54:19.409Z,5744.00
2023-04-21T11:59:20.518Z,5772.00
2023-04-21T12:04:25.595Z,5816.00
2023-04-21T12:09:23.726Z,5856.00
2023-04-21T12:14:23.833Z,5892.00
2023-04-21T12:19:24.019Z,5936.00
2023-04-21T12:24:23.137Z,5972.00
2023-04-21T12:29:25.236Z,6008.00
2023-04-21T12:34:24.315Z,6056.00
2023-04-21T12:39:25.393Z,6136.00
2023-04-21T12:44:27.490Z,6256.00
2023-04-21T12:49:27.806Z,6480.00
2023-04-21T12:54:26.917Z,6928.00
2023-04-21T12:59:28.392Z,7024.00
2023-04-21T13:04:27.988Z,6504.00
2023-04-21T13:09:27.229Z,5444.00
2023-04-21T13:14:29.300Z,6564.00
2023-04-21T13:19:28.576Z,6556.00
2023-04-21T13:24:29.828Z,7028.00
2023-04-21T13:29:32.144Z,6296.00
2023-04-21T13:34:31.556Z,5580.00
2023-04-21T13:39:33.091Z,5736.00
2023-04-21T13:44:32.287Z,5880.00
2023-04-21T13:49:34.719Z,6268.00
2023-04-21T13:54:34.216Z,6812.00
2023-04-21T13:59:33.662Z,7124.00
2023-04-21T14:04:34.126Z,7368.00
2023-04-21T14:09:34.581Z,7664.00
2023-04-21T14:19:35.219Z,8380.00
2023-04-21T14:24:34.473Z,8016.00
2023-04-21T14:29:35.950Z,8208.00
2023-04-21T14:34:36.154Z,7320.00
2023-04-21T14:39:35.596Z,8716.00
2023-04-21T14:44:35.901Z,7432.00
2023-04-21T14:49:35.317Z,7132.00
2023-04-21T14:54:34.619Z,6684.00
2023-04-21T14:59:36.214Z,6772.00
2023-04-21T15:04:35.810Z,6588.00
2023-04-21T15:09:37.475Z,5688.00
2023-04-21T15:14:36.766Z,5524.00
2023-04-21T15:19:38.823Z,5520.00
2023-04-21T15:24:37.908Z,5936.00
2023-04-21T15:29:38.958Z,5656.00
2023-04-21T15:34:42.023Z,4876.00
2023-04-21T15:39:42.124Z,4680.00
2023-04-21T15:44:42.187Z,4684.00
2023-04-21T15:49:41.308Z,4764.00
2023-04-21T15:54:42.397Z,4844.00
2023-04-21T15:59:44.492Z,5008.00
2023-04-21T16:04:42.993Z,4912.00
2023-04-21T16:09:45.839Z,4492.00
2023-04-21T16:14:55.674Z,4252.00
2023-04-21T16:19:45.822Z,4068.00
2023-04-21T16:24:48.942Z,3960.00
2023-04-21T16:29:49.039Z,3832.00
2023-04-21T16:34:49.129Z,3428.00
2023-04-21T16:39:48.275Z,3060.00
2023-04-21T16:44:49.305Z,2824.00
2023-04-21T16:49:51.388Z,2544.00
2023-04-21T16:54:50.498Z,2336.00
2023-04-21T16:59:52.601Z,2148.00
2023-04-21T17:04:51.694Z,1848.00
2023-04-21T17:09:52.821Z,1624.00
2023-04-21T17:14:53.925Z,1392.00
2023-04-21T17:19:56.014Z,1136.00
2023-04-21T17:24:55.443Z,940.00
2023-04-21T17:29:54.803Z,788.00
2023-04-21T17:34:55.912Z,628.00
2023-04-21T17:39:57.742Z,496.00
2023-04-21T17:44:57.661Z,396.00
2023-04-21T17:49:59.766Z,316.00
2023-04-21T17:54:58.858Z,220.00
2023-04-21T18:00:01.192Z,156.00
2023-04-21T18:05:00.439Z,108.00
2023-04-21T18:10:01.828Z,72.00
2023-04-21T18:15:03.888Z,48.00
2023-04-21T18:20:03.088Z,32.00
2023-04-21T18:25:04.141Z,20.00
2023-04-21T18:30:06.198Z,8.00
2023-04-21T18:35:05.604Z,4.00
2023-04-21T18:40:06.942Z,4.00
2023-04-21T18:45:08.379Z,0.00
2023-04-21T18:50:07.735Z,0.00
2023-04-21T18:55:10.030Z,0.00
2023-04-21T19:00:09.234Z,0.00
2023-04-21T19:05:11.527Z,0.00
2023-04-21T19:10:11.820Z,0.00
2023-04-21T19:15:10.948Z,0.00
2023-04-21T19:20:12.437Z,0.00
2023-04-21T19:25:13.693Z,0.00
2023-04-21T19:30:13.182Z,0.00
2023-04-21T19:35:12.827Z,0.00
2023-04-21T19:40:13.306Z,0.00
2023-04-21T19:45:12.750Z,0.00
2023-04-21T19:50:14.063Z,0.00
2023-04-21T19:55:15.344Z,0.00
2023-04-21T20:00:16.778Z,0.00
2023-04-21T20:05:15.960Z,0.00
2023-04-21T20:10:17.222Z,0.00
2023-04-21T20:15:19.274Z,0.00
2023-04-21T20:20:19.483Z,0.00
2023-04-21T20:25:18.595Z,0.00
2023-04-21T20:30:20.040Z,0.00
2023-04-21T20:35:21.360Z,0.00
2023-04-21T20:40:20.690Z,0.00
2023-04-21T20:45:21.849Z,0.00
2023-04-21T20:50:23.019Z,0.00
2023-04-21T20:55:24.096Z,0.00
2023-04-21T21:00:25.248Z,0.00
2023-04-21T21:05:27.333Z,0.00
2023-04-21T21:10:27.406Z,0.00
2023-04-21T21:15:26.480Z,0.00
2023-04-21T21:20:27.647Z,0.00
2023-04-21T21:25:29.858Z,0.00
2023-04-21T21:30:29.899Z,0.00
2023-04-21T21:35:28.981Z,0.00
2023-04-21T21:40:32.074Z,0.00
2023-04-21T21:45:31.296Z,0.00
2023-04-21T21:50:32.695Z,0.00
2023-04-21T21:55:33.777Z,0.00
2023-04-21T22:00:36.859Z,0.00
2023-04-21T22:05:36.503Z,0.00
2023-04-21T22:10:38.588Z,0.00
2023-04-21T22:15:37.196Z,0.00
2023-04-21T22:20:36.388Z,0.00
2023-04-21T22:25:37.543Z,0.00
2023-04-21T22:30:38.676Z,0.00
2023-04-21T22:35:38.910Z,0.00
2023-04-21T22:40:40.973Z,0.00
2023-04-21T22:45:40.054Z,0.00
2023-04-21T22:50:41.091Z,0.00
2023-04-21T22:55:43.183Z,0.00
2023-04-21T23:00:42.287Z,0.00
2023-04-21T23:05:43.520Z,0.00
2023-04-21T23:10:44.705Z,0.00
2023-04-21T23:15:45.792Z,0.00
2023-04-21T23:20:47.903Z,0.00
2023-04-21T23:25:47.085Z,0.00
2023-04-21T23:30:48.280Z,0.00
2023-04-21T23:35:53.332Z,0.00
2023-04-21T23:40:50.360Z,0.00
2023-04-21T23:45:52.628Z,0.00
2023-04-21T23:50:51.671Z,0.00
2023-04-21T23:55:53.731Z,0.00
